createdAt,value
2022-09-01T00:00:15.053Z,64.60
2022-09-01T00:02:44.884Z,64.30
2022-09-01T00:05:14.087Z,63.60
2022-09-01T00:07:46.356Z,67.00
2022-09-01T00:10:19.556Z,66.90
2022-09-01T00:12:49.861Z,63.20
2022-09-01T00:15:18.541Z,66.50
2022-09-01T00:17:46.609Z,66.00
2022-09-01T00:20:19.598Z,66.10
2022-09-01T00:22:49.213Z,65.70
2022-09-01T00:25:20.325Z,65.50
2022-09-01T00:27:49.703Z,65.10
2022-09-01T00:30:23.760Z,63.90
2022-09-01T00:32:51.458Z,64.80
2022-09-01T00:35:21.155Z,65.00
2022-09-01T00:37:48.855Z,65.00
2022-09-01T00:40:18.163Z,67.40
2022-09-01T00:42:48.971Z,65.30
2022-09-01T00:45:23.225Z,65.00
2022-09-01T00:47:52.076Z,66.00
2022-09-01T00:50:20.434Z,64.90
2022-09-01T00:52:56.176Z,65.50
2022-09-01T00:55:27.310Z,65.70
2022-09-01T00:57:57.942Z,68.20
2022-09-01T01:00:30.145Z,66.30
2022-09-01T01:02:58.885Z,66.00
2022-09-01T01:05:39.794Z,67.40
2022-09-01T01:08:11.902Z,65.80
2022-09-01T01:10:42.230Z,67.10
2022-09-01T01:13:14.090Z,66.20
2022-09-01T01:15:46.095Z,66.10
2022-09-01T01:18:16.966Z,65.60
2022-09-01T01:21:20.768Z,67.00
2022-09-01T01:24:06.715Z,67.00
2022-09-01T01:26:34.638Z,66.20
2022-09-01T01:29:04.650Z,68.00
2022-09-01T01:31:33.247Z,68.70
2022-09-01T01:34:04.302Z,67.90
2022-09-01T01:36:36.485Z,68.70
2022-09-01T01:39:17.633Z,67.10
2022-09-01T01:41:49.080Z,66.80
2022-09-01T01:44:21.027Z,71.50
2022-09-01T01:46:54.110Z,67.80
2022-09-01T01:49:27.689Z,67.30
2022-09-01T01:51:57.877Z,69.30
2022-09-01T01:54:32.493Z,68.30
2022-09-01T01:57:06.489Z,67.10
2022-09-01T01:59:36.049Z,68.50
2022-09-01T02:02:04.089Z,69.80
2022-09-01T02:04:40.112Z,72.00
2022-09-01T02:07:14.116Z,69.20
2022-09-01T02:09:46.310Z,69.30
2022-09-01T02:12:19.596Z,68.80
2022-09-01T02:14:48.631Z,71.20
2022-09-01T02:17:17.166Z,68.10
2022-09-01T02:19:47.183Z,71.60
2022-09-01T02:22:14.945Z,69.50
2022-09-01T02:24:48.204Z,71.40
2022-09-01T02:27:25.980Z,69.80
2022-09-01T02:29:55.627Z,68.70
2022-09-01T02:32:24.350Z,69.90
2022-09-01T02:34:54.864Z,70.70
2022-09-01T02:37:25.625Z,69.00
2022-09-01T02:39:53.657Z,69.10
2022-09-01T02:42:27.761Z,69.20
2022-09-01T02:44:56.170Z,69.90
2022-09-01T02:47:27.180Z,69.20
2022-09-01T02:50:01.074Z,72.80
2022-09-01T02:52:36.119Z,70.00
2022-09-01T02:55:13.294Z,69.10
2022-09-01T02:57:45.658Z,68.20
2022-09-01T03:00:29.114Z,69.60
2022-09-01T03:05:42.275Z,68.90
2022-09-01T03:08:16.961Z,72.00
2022-09-01T03:10:50.631Z,68.50
2022-09-01T03:13:24.215Z,69.10
2022-09-01T03:15:52.891Z,69.40
2022-09-01T03:18:20.937Z,71.50
2022-09-01T03:20:53.087Z,69.30
2022-09-01T03:23:21.403Z,69.40
2022-09-01T03:25:49.417Z,69.50
2022-09-01T03:28:18.984Z,71.00
2022-09-01T03:30:52.171Z,71.00
2022-09-01T03:33:22.048Z,69.20
2022-09-01T03:35:52.793Z,69.50
2022-09-01T03:38:24.679Z,70.20
2022-09-01T03:41:02.056Z,70.00
2022-09-01T03:43:35.877Z,69.50
2022-09-01T03:46:04.331Z,69.70
2022-09-01T03:48:33.003Z,70.30
2022-09-01T03:51:03.840Z,70.30
2022-09-01T03:53:35.126Z,69.70
2022-09-01T03:56:04.211Z,68.90
2022-09-01T03:58:33.519Z,69.30
2022-09-01T04:01:02.975Z,71.30
2022-09-01T04:03:34.696Z,69.40
2022-09-01T04:06:03.917Z,69.60
2022-09-01T04:08:39.080Z,69.40
2022-09-01T04:11:24.266Z,72.30
2022-09-01T04:13:58.603Z,71.20
2022-09-01T04:16:48.833Z,70.30
2022-09-01T04:19:25.788Z,73.70
2022-09-01T04:22:01.965Z,70.70
2022-09-01T04:24:47.032Z,71.60
2022-09-01T04:27:18.418Z,73.90
2022-09-01T04:30:04.784Z,73.20
2022-09-01T04:32:46.879Z,73.40
2022-09-01T04:35:32.881Z,72.50
2022-09-01T04:38:39.815Z,73.40
2022-09-01T04:41:17.865Z,72.70
2022-09-01T04:43:59.634Z,73.40
2022-09-01T04:46:33.052Z,71.60
2022-09-01T04:49:12.889Z,71.20
2022-09-01T04:51:44.037Z,70.00
2022-09-01T04:54:14.347Z,69.90
2022-09-01T04:57:07.422Z,69.60
2022-09-01T04:59:38.774Z,71.10
2022-09-01T05:02:09.586Z,71.60
2022-09-01T05:04:37.762Z,69.60
2022-09-01T05:07:10.584Z,72.30
2022-09-01T05:09:43.704Z,69.80
2022-09-01T05:12:29.377Z,75.20
2022-09-01T05:15:10.738Z,73.90
2022-09-01T05:17:41.554Z,72.80
2022-09-01T05:20:16.502Z,71.40
2022-09-01T05:22:45.085Z,70.30
2022-09-01T05:25:15.450Z,72.90
2022-09-01T05:27:51.523Z,72.50
2022-09-01T05:30:28.841Z,70.00
2022-09-01T05:32:56.705Z,72.50
2022-09-01T05:35:34.215Z,73.50
2022-09-01T05:38:03.850Z,72.40
2022-09-01T05:40:33.799Z,70.20
2022-09-01T05:43:04.880Z,73.90
2022-09-01T05:46:03.312Z,75.10
2022-09-01T05:48:40.252Z,70.40
2022-09-01T05:51:43.389Z,77.00
2022-09-01T05:54:13.042Z,71.30
2022-09-01T05:56:53.808Z,67.90
2022-09-01T05:59:34.819Z,74.40
2022-09-01T06:02:09.432Z,69.90
2022-09-01T06:04:41.528Z,70.50
2022-09-01T06:07:25.180Z,75.90
2022-09-01T06:09:57.494Z,68.80
2022-09-01T06:12:25.467Z,70.10
2022-09-01T06:14:57.110Z,66.80
2022-09-01T06:17:34.640Z,66.90
2022-09-01T06:20:10.791Z,66.40
2022-09-01T06:22:41.275Z,68.30
2022-09-01T06:25:10.510Z,69.10
2022-09-01T06:27:44.566Z,67.20
2022-09-01T06:30:31.140Z,71.50
2022-09-01T06:33:09.520Z,65.40
2022-09-01T06:35:45.093Z,67.70
2022-09-01T06:38:17.459Z,67.30
2022-09-01T06:40:51.209Z,67.20
2022-09-01T06:43:25.864Z,67.90
2022-09-01T06:45:56.412Z,70.10
2022-09-01T06:48:26.203Z,65.20
2022-09-01T06:51:22.026Z,70.90
2022-09-01T06:53:59.531Z,65.20
2022-09-01T06:56:38.934Z,66.90
2022-09-01T06:59:22.057Z,67.00
2022-09-01T07:05:04.849Z,66.90
2022-09-01T07:08:05.300Z,67.80
2022-09-01T07:16:53.300Z,66.20
2022-09-01T07:19:49.079Z,66.30
2022-09-01T07:25:14.097Z,65.50
2022-09-01T07:27:55.838Z,67.80
2022-09-01T07:30:33.700Z,66.20
2022-09-01T07:41:43.316Z,65.80
2022-09-01T07:48:06.782Z,63.20
2022-09-01T07:53:45.612Z,64.60
2022-09-01T07:56:20.054Z,63.20
2022-09-01T07:58:54.520Z,60.40
2022-09-01T08:01:37.038Z,59.70
2022-09-01T08:04:32.243Z,59.60
2022-09-01T08:07:03.850Z,59.90
2022-09-01T08:09:44.133Z,62.80
2022-09-01T08:12:28.907Z,62.00
2022-09-01T08:15:40.977Z,61.90
2022-09-01T08:18:19.683Z,59.50
2022-09-01T08:20:57.667Z,62.60
2022-09-01T08:23:42.203Z,61.60
2022-09-01T08:26:22.965Z,62.30
2022-09-01T08:29:10.832Z,59.70
2022-09-01T08:31:51.294Z,59.40
2022-09-01T08:34:47.533Z,58.50
2022-09-01T08:37:23.174Z,62.80
2022-09-01T08:39:59.943Z,57.70
2022-09-01T08:43:15.275Z,60.70
2022-09-01T08:46:15.385Z,60.30
2022-09-01T08:49:26.493Z,54.50
2022-09-01T08:52:32.755Z,57.70
2022-09-01T08:55:40.229Z,60.80
2022-09-01T08:58:18.433Z,55.80
2022-09-01T09:01:50.397Z,54.90
2022-09-01T09:05:15.827Z,52.80
2022-09-01T09:08:07.421Z,52.00
2022-09-01T09:11:21.779Z,56.30
2022-09-01T09:14:06.431Z,52.70
2022-09-01T09:16:53.024Z,51.70
2022-09-01T09:20:02.694Z,53.20
2022-09-01T09:22:44.269Z,50.90
2022-09-01T09:25:31.510Z,53.10
2022-09-01T09:28:10.652Z,52.30
2022-09-01T09:30:44.360Z,51.70
2022-09-01T09:34:10.540Z,53.30
2022-09-01T09:37:01.941Z,53.30
2022-09-01T09:39:58.075Z,56.50
2022-09-01T09:42:40.490Z,54.20
2022-09-01T09:45:30.567Z,52.70
2022-09-01T09:48:18.480Z,47.80
2022-09-01T09:50:53.869Z,51.20
2022-09-01T09:53:47.379Z,49.90
2022-09-01T09:56:43.353Z,49.10
2022-09-01T10:00:06.934Z,51.10
2022-09-01T10:03:04.550Z,47.10
2022-09-01T10:05:54.949Z,46.50
2022-09-01T10:08:40.228Z,46.60
2022-09-01T10:11:13.394Z,47.30
2022-09-01T10:13:44.873Z,46.70
2022-09-01T10:16:29.097Z,48.40
2022-09-01T10:19:02.157Z,45.50
2022-09-01T10:21:41.789Z,44.30
2022-09-01T10:24:31.856Z,43.20
2022-09-01T10:27:17.372Z,42.90
2022-09-01T10:30:12.170Z,42.70
2022-09-01T10:32:50.781Z,44.90
2022-09-01T10:35:28.275Z,43.70
2022-09-01T10:38:00.708Z,42.00
2022-09-01T10:40:34.859Z,42.30
2022-09-01T10:43:38.904Z,46.20
2022-09-01T10:46:24.799Z,41.00
2022-09-01T10:49:15.985Z,41.00
2022-09-01T10:51:56.493Z,42.70
2022-09-01T10:54:59.324Z,42.40
2022-09-01T10:57:51.830Z,40.40
2022-09-01T11:03:57.871Z,40.10
2022-09-01T11:13:03.235Z,40.00
2022-09-01T11:15:45.775Z,38.70
2022-09-01T11:19:19.093Z,40.80
2022-09-01T11:22:55.925Z,39.00
2022-09-01T11:26:19.754Z,38.60
2022-09-01T11:29:43.079Z,39.90
2022-09-01T11:35:58.930Z,38.90
2022-09-01T11:38:39.089Z,40.30
2022-09-01T11:41:50.669Z,37.90
2022-09-01T11:44:38.538Z,36.90
2022-09-01T11:47:16.586Z,40.20
2022-09-01T11:50:02.837Z,37.50
2022-09-01T11:53:02.545Z,36.20
2022-09-01T11:55:41.539Z,36.00
2022-09-01T11:58:40.530Z,36.90
2022-09-01T12:01:43.767Z,38.70
2022-09-01T12:04:31.160Z,35.20
2022-09-01T12:07:04.291Z,37.60
2022-09-01T12:09:57.509Z,36.50
2022-09-01T12:12:38.903Z,37.00
2022-09-01T12:15:22.611Z,36.00
2022-09-01T12:17:58.079Z,35.30
2022-09-01T12:20:40.848Z,36.60
2022-09-01T12:23:39.053Z,36.20
2022-09-01T12:26:23.653Z,32.90
2022-09-01T12:28:58.292Z,34.20
2022-09-01T12:31:33.681Z,35.10
2022-09-01T12:34:41.670Z,36.40
2022-09-01T12:37:18.702Z,34.60
2022-09-01T12:40:00.587Z,33.00
2022-09-01T12:42:40.697Z,33.90
2022-09-01T12:45:45.245Z,34.00
2022-09-01T12:48:37.739Z,32.80
2022-09-01T12:51:29.202Z,33.10
2022-09-01T12:54:04.852Z,32.80
2022-09-01T12:56:33.979Z,33.30
2022-09-01T12:59:26.262Z,33.50
2022-09-01T13:02:31.691Z,34.30
2022-09-01T13:05:41.676Z,32.40
2022-09-01T13:08:22.754Z,31.20
2022-09-01T13:11:05.233Z,32.60
2022-09-01T13:14:12.477Z,32.30
2022-09-01T13:16:36.829Z,36.40
2022-09-01T13:19:10.909Z,36.70
2022-09-01T13:24:30.183Z,37.10
2022-09-01T13:29:57.282Z,35.60
2022-09-01T13:32:30.632Z,33.40
2022-09-01T13:35:05.432Z,33.60
2022-09-01T13:37:39.135Z,33.70
2022-09-01T13:40:12.467Z,36.50
2022-09-01T13:42:51.212Z,32.60
2022-09-01T13:45:31.980Z,33.00
2022-09-01T13:48:16.647Z,32.90
2022-09-01T13:53:38.419Z,33.20
2022-09-01T13:56:07.762Z,30.90
2022-09-01T13:58:41.715Z,34.00
2022-09-01T14:01:20.543Z,35.30
2022-09-01T14:03:51.989Z,33.70
2022-09-01T14:06:22.990Z,33.60
2022-09-01T14:08:57.544Z,34.00
2022-09-01T14:11:29.711Z,35.80
2022-09-01T14:14:01.986Z,33.00
2022-09-01T14:16:33.082Z,32.30
2022-09-01T14:19:03.668Z,34.60
2022-09-01T14:21:31.358Z,32.00
2022-09-01T14:24:01.524Z,33.40
2022-09-01T14:26:29.270Z,33.80
2022-09-01T14:28:58.122Z,33.90
2022-09-01T14:31:25.771Z,35.00
2022-09-01T14:33:56.569Z,33.10
2022-09-01T14:36:28.655Z,34.80
2022-09-01T14:39:01.689Z,31.80
2022-09-01T14:41:29.940Z,34.70
2022-09-01T14:44:05.195Z,33.00
2022-09-01T14:46:34.554Z,32.90
2022-09-01T14:49:04.245Z,32.90
2022-09-01T14:54:20.224Z,33.00
2022-09-01T15:02:46.528Z,31.00
2022-09-01T15:05:17.230Z,32.50
2022-09-01T15:07:45.406Z,34.00
2022-09-01T15:10:24.902Z,32.80
2022-09-01T15:13:05.951Z,33.30
2022-09-01T15:15:40.430Z,33.00
2022-09-01T15:18:08.347Z,35.20
2022-09-01T15:20:48.694Z,34.50
2022-09-01T15:23:26.800Z,32.50
2022-09-01T15:25:59.299Z,33.00
2022-09-01T15:28:30.553Z,32.40
2022-09-01T15:31:00.315Z,33.40
2022-09-01T15:33:32.310Z,34.80
2022-09-01T15:36:05.495Z,33.40
2022-09-01T15:38:34.967Z,31.90
2022-09-01T15:41:03.440Z,32.90
2022-09-01T15:43:31.836Z,34.30
2022-09-01T15:46:02.162Z,34.20
2022-09-01T15:48:29.990Z,35.30
2022-09-01T15:51:33.948Z,35.30
2022-09-01T15:54:12.444Z,32.10
2022-09-01T15:56:49.375Z,33.80
2022-09-01T15:59:24.764Z,32.20
2022-09-01T16:02:03.590Z,32.10
2022-09-01T16:04:44.206Z,36.40
2022-09-01T16:07:13.518Z,36.70
2022-09-01T16:09:44.255Z,34.70
2022-09-01T16:12:28.891Z,35.40
2022-09-01T16:14:58.089Z,32.50
2022-09-01T16:17:30.835Z,35.40
2022-09-01T16:20:17.743Z,34.60
2022-09-01T16:22:55.196Z,32.40
2022-09-01T16:25:35.383Z,32.30
2022-09-01T16:28:17.373Z,34.30
2022-09-01T16:30:49.601Z,34.80
2022-09-01T16:33:25.481Z,34.00
2022-09-01T16:36:26.671Z,33.50
2022-09-01T16:39:01.653Z,32.10
2022-09-01T16:41:44.683Z,33.80
2022-09-01T16:44:26.486Z,32.70
2022-09-01T16:47:33.609Z,32.70
2022-09-01T16:50:19.600Z,32.20
2022-09-01T16:53:18.044Z,32.80
2022-09-01T16:56:05.196Z,33.00
2022-09-01T16:58:57.171Z,33.30
2022-09-01T17:01:34.719Z,33.50
2022-09-01T17:05:10.738Z,38.20
2022-09-01T17:07:41.388Z,33.50
2022-09-01T17:10:57.114Z,35.60
2022-09-01T17:13:52.528Z,35.30
2022-09-01T17:16:43.465Z,34.20
2022-09-01T17:19:18.322Z,34.70
2022-09-01T17:21:54.119Z,35.10
2022-09-01T17:24:44.460Z,35.30
2022-09-01T17:27:25.678Z,35.00
2022-09-01T17:29:55.105Z,40.20
2022-09-01T17:33:17.558Z,35.90
2022-09-01T17:36:09.577Z,34.80
2022-09-01T17:38:40.425Z,35.80
2022-09-01T17:41:44.917Z,39.00
2022-09-01T17:44:33.655Z,35.70
2022-09-01T17:47:24.733Z,37.00
2022-09-01T17:50:13.773Z,36.10
2022-09-01T17:52:59.897Z,36.00
2022-09-01T17:55:41.517Z,36.40
2022-09-01T17:58:37.477Z,36.40
2022-09-01T18:01:18.381Z,36.90
2022-09-01T18:04:27.985Z,40.00
2022-09-01T18:07:20.096Z,36.90
2022-09-01T18:09:54.334Z,37.30
2022-09-01T18:12:41.857Z,37.60
2022-09-01T18:15:21.879Z,37.60
2022-09-01T18:18:00.248Z,37.90
2022-09-01T18:20:45.525Z,38.00
2022-09-01T18:23:17.309Z,38.20
2022-09-01T18:25:56.468Z,38.20
2022-09-01T18:28:24.011Z,39.60
2022-09-01T18:31:29.179Z,38.40
2022-09-01T18:34:24.630Z,38.40
2022-09-01T18:37:01.631Z,38.50
2022-09-01T18:40:07.396Z,38.80
2022-09-01T18:43:07.555Z,38.90
2022-09-01T18:45:48.155Z,39.10
2022-09-01T18:48:48.803Z,39.30
2022-09-01T18:51:34.946Z,39.30
2022-09-01T18:54:20.516Z,39.60
2022-09-01T18:57:00.666Z,39.80
2022-09-01T18:59:49.928Z,39.70
2022-09-01T19:02:55.800Z,39.70
2022-09-01T19:06:01.092Z,39.90
2022-09-01T19:08:31.417Z,39.90
2022-09-01T19:11:08.392Z,39.90
2022-09-01T19:14:02.981Z,40.40
2022-09-01T19:17:22.678Z,40.30
2022-09-01T19:19:59.581Z,40.60
2022-09-01T19:22:54.270Z,40.80
2022-09-01T19:25:48.147Z,40.80
2022-09-01T19:28:25.271Z,41.00
2022-09-01T19:31:06.643Z,41.00
2022-09-01T19:33:40.005Z,41.30
2022-09-01T19:36:12.424Z,41.50
2022-09-01T19:38:39.937Z,40.60
2022-09-01T19:41:26.421Z,42.80
2022-09-01T19:44:02.895Z,41.70
2022-09-01T19:46:38.168Z,42.20
2022-09-01T19:49:25.136Z,42.10
2022-09-01T19:51:55.869Z,42.10
2022-09-01T19:54:37.086Z,42.30
2022-09-01T19:57:16.845Z,42.40
2022-09-01T20:00:09.853Z,42.40
2022-09-01T20:02:43.282Z,42.50
2022-09-01T20:05:31.769Z,42.50
2022-09-01T20:08:01.965Z,42.70
2022-09-01T20:10:42.489Z,42.80
2022-09-01T20:13:22.863Z,42.80
2022-09-01T20:15:53.572Z,42.90
2022-09-01T20:18:36.549Z,43.20
2022-09-01T20:21:09.027Z,43.40
2022-09-01T20:24:41.023Z,44.10
2022-09-01T20:27:34.925Z,43.30
2022-09-01T20:30:04.830Z,43.40
2022-09-01T20:32:58.054Z,44.20
2022-09-01T20:35:39.840Z,43.60
2022-09-01T20:38:45.955Z,43.70
2022-09-01T20:41:30.728Z,43.60
2022-09-01T20:43:59.662Z,43.60
2022-09-01T20:46:28.352Z,43.70
2022-09-01T20:48:56.983Z,43.60
2022-09-01T20:51:39.996Z,45.80
2022-09-01T20:54:27.226Z,43.60
2022-09-01T20:57:27.335Z,43.70
2022-09-01T21:00:02.290Z,43.70
2022-09-01T21:03:02.901Z,43.80
2022-09-01T21:05:41.248Z,43.50
2022-09-01T21:08:24.970Z,43.00
2022-09-01T21:11:24.349Z,43.80
2022-09-01T21:14:13.893Z,43.80
2022-09-01T21:16:56.721Z,43.80
2022-09-01T21:19:37.213Z,43.80
2022-09-01T21:22:09.038Z,44.00
2022-09-01T21:24:37.201Z,44.50
2022-09-01T21:27:08.120Z,44.10
2022-09-01T21:29:56.200Z,44.00
2022-09-01T21:32:24.331Z,44.10
2022-09-01T21:34:53.177Z,44.40
2022-09-01T21:37:22.596Z,44.50
2022-09-01T21:39:53.161Z,44.50
2022-09-01T21:42:26.356Z,44.40
2022-09-01T21:44:56.059Z,44.50
2022-09-01T21:47:25.512Z,44.70
2022-09-01T21:49:52.905Z,44.50
2022-09-01T21:52:20.639Z,44.50
2022-09-01T21:54:48.590Z,45.00
2022-09-01T21:57:16.580Z,45.10
2022-09-01T21:59:44.158Z,45.50
2022-09-01T22:02:11.748Z,45.10
2022-09-01T22:04:39.314Z,44.70
2022-09-01T22:07:15.250Z,45.40
2022-09-01T22:09:43.557Z,44.80
2022-09-01T22:12:11.277Z,45.20
2022-09-01T22:14:38.865Z,44.70
2022-09-01T22:17:06.801Z,45.80
2022-09-01T22:19:35.027Z,45.80
2022-09-01T22:22:03.240Z,45.00
2022-09-01T22:24:30.855Z,46.10
2022-09-01T22:26:58.345Z,46.40
2022-09-01T22:29:25.769Z,46.10
2022-09-01T22:31:53.432Z,47.60
2022-09-01T22:34:20.916Z,46.10
2022-09-01T22:36:49.685Z,47.50
2022-09-01T22:39:18.544Z,45.20
2022-09-01T22:41:46.256Z,45.00
2022-09-01T22:44:13.801Z,45.00
2022-09-01T22:46:41.723Z,45.20
2022-09-01T22:49:10.798Z,45.10
2022-09-01T22:51:40.566Z,45.10
2022-09-01T22:54:09.696Z,45.10
2022-09-01T22:56:39.502Z,46.20
2022-09-01T22:59:11.010Z,45.10
2022-09-01T23:01:42.504Z,45.30
2022-09-01T23:04:12.508Z,45.10
2022-09-01T23:06:45.345Z,45.30
2022-09-01T23:09:14.600Z,45.40
2022-09-01T23:11:42.553Z,45.60
2022-09-01T23:14:10.587Z,45.40
2022-09-01T23:16:39.895Z,45.60
2022-09-01T23:19:08.147Z,45.70
2022-09-01T23:21:38.040Z,46.50
2022-09-01T23:24:07.022Z,45.90
2022-09-01T23:26:35.586Z,45.90
2022-09-01T23:29:04.290Z,45.80
2022-09-01T23:31:36.523Z,46.10
2022-09-01T23:34:06.166Z,46.10
2022-09-01T23:36:34.433Z,46.10
2022-09-01T23:39:05.156Z,46.30
2022-09-01T23:41:34.736Z,46.20
2022-09-01T23:44:04.342Z,46.20
2022-09-01T23:46:40.574Z,46.30
2022-09-01T23:49:08.993Z,46.30
2022-09-01T23:51:36.841Z,46.40
2022-09-01T23:54:04.849Z,46.40
2022-09-01T23:56:32.423Z,46.30
2022-09-01T23:59:00.392Z,46.70
